Terminal Aerodrome Forecast
Issued by NWS

Home | Current Version | Previous Version | Text Only | Print | Product List | Glossary On
Versions: 1 2 3 4 5 6 7 8 9 10 11 12
000
FTUS42 KGSP 242321
TAFHKY
TAF
KHKY 242321Z 2500/2524 22005KT P6SM FEW045 SCT150 BKN250
     FM250400 21003KT P6SM BKN040
     FM250900 21003KT P6SM BKN025
     FM251200 20003KT P6SM BKN015
     FM251600 21008KT P6SM BKN025
     FM251800 20009KT P6SM BKN035=

USA.gov is the U.S. government's official web portal to all federal, state and local government web resources and services.